Time;durP1;ratioP1;P1;durP2;ratioP2;P2;SDS_P1;SDS_P2;PMS_P1;PMS_P2;Temp;Humidity;BMP_temperature;BMP_pressure;BME280_temperature;BME280_humidity;BME280_pressure;Samples;Min_cycle;Max_cycle;Signal;HPM_P1;HPM_P2
2022/03/12 00:08:08;;;;;;;5.78;3.20;;;4.20;95.80;;;;;;6058874;23;20098;-86
2022/03/12 00:11:12;;;;;;;7.53;3.08;;;4.10;96.50;;;;;;6064350;23;20101;-86
2022/03/12 00:14:37;;;;;;;6.60;3.30;;;4.60;97.10;;;;;;6041174;23;20018;-86
2022/03/12 00:17:15;;;;;;;6.07;3.05;;;4.20;97.70;;;;;;6013563;23;20029;-85
2022/03/12 00:20:45;;;;;;;;;;;;;;;;;;;;;
2022/03/12 00:26:33;;;;;;;4.05;2.42;;;3.90;98.50;;;;;;6214443;23;20044;-86
2022/03/12 00:33:08;;;;;;;6.97;2.88;;;4.00;99.30;;;;;;6064299;23;20068;-86
2022/03/12 00:36:36;;;;;;;5.03;2.97;;;3.90;99.40;;;;;;5951134;24;20076;-86
2022/03/12 00:43:37;;;;;;;;;;;;;;;;;;;;;
2022/03/12 00:46:27;;;;;;;5.95;3.30;;;3.80;99.60;;;;;;5842201;24;20509;-86
2022/03/12 00:49:34;;;;;;;6.07;3.42;;;3.80;99.50;;;;;;5844187;24;20111;-86
2022/03/12 00:56:36;;;;;;;6.28;2.75;;;3.80;99.40;;;;;;5871220;24;20062;-86
2022/03/12 00:59:25;;;;;;;7.68;3.30;;;5.10;99.90;;;;;;5827122;24;20033;-86
2022/03/12 01:02:31;;;;;;;11.63;3.17;;;4.10;99.90;;;;;;5867025;24;20061;-85
2022/03/12 01:05:50;;;;;;;5.72;3.38;;;4.00;99.50;;;;;;6066839;23;20040;-86
2022/03/12 01:13:21;;;;;;;;;;;;;;;;;;;;;
2022/03/12 01:33:31;;;;;;;6.00;2.90;;;4.10;99.90;;;;;;5895955;24;20226;-86
2022/03/12 01:43:52;;;;;;;;;;;;;;;;;;;;;
2022/03/12 01:47:22;;;;;;;;;;;;;;;;;;;;;
2022/03/12 01:50:50;;;;;;;8.73;3.88;;;4.30;99.90;;;;;;5837956;24;20014;-86
2022/03/12 01:53:27;;;;;;;6.55;3.53;;;3.50;99.50;;;;;;5873954;24;20101;-86
2022/03/12 01:56:58;;;;;;;5.60;2.90;;;3.70;99.90;;;;;;5910043;24;20041;-85
2022/03/12 01:59:43;;;;;;;4.68;3.03;;;3.90;99.90;;;;;;5928472;24;20024;-86
2022/03/12 02:02:20;;;;;;;7.20;3.40;;;3.30;99.70;;;;;;5950674;24;20020;-85
2022/03/12 02:05:28;;;;;;;6.35;3.72;;;3.90;99.90;;;;;;5950625;24;20027;-86
2022/03/12 02:11:27;;;;;;;6.15;3.67;;;5.00;99.90;;;;;;5928913;24;20117;-86
2022/03/12 02:14:36;;;;;;;;;;;;;;;;;;;;;
2022/03/12 02:17:48;;;;;;;6.35;3.63;;;4.00;99.90;;;;;;5901008;24;20089;-86
2022/03/12 02:27:40;;;;;;;7.72;4.05;;;4.00;99.30;;;;;;6204730;23;20074;-86
2022/03/12 02:31:11;;;;;;;6.90;4.10;;;3.40;99.10;;;;;;6036214;23;20027;-86
2022/03/12 02:41:36;;;;;;;7.82;3.72;;;4.20;98.90;;;;;;6245254;23;20015;-85
2022/03/12 02:44:39;;;;;;;7.53;3.75;;;4.20;98.80;;;;;;6181975;23;20021;-86
2022/03/12 02:47:41;;;;;;;7.55;3.75;;;4.20;98.70;;;;;;5979598;23;20071;-85
2022/03/12 02:50:27;;;;;;;5.60;3.80;;;4.30;98.50;;;;;;5956308;24;20542;-85
2022/03/12 02:57:02;;;;;;;11.50;4.20;;;4.30;98.40;;;;;;5983163;24;20064;-86
2022/03/12 03:00:20;;;;;;;;;;;;;;;;;;;;;
2022/03/12 03:03:19;;;;;;;9.95;4.28;;;4.30;98.30;;;;;;5981360;24;20020;-86
2022/03/12 03:06:26;;;;;;;6.90;3.47;;;4.40;98.20;;;;;;5961137;24;20039;-86
2022/03/12 03:16:45;;;;;;;7.55;3.65;;;4.30;98.50;;;;;;5923796;24;20465;-84
2022/03/12 03:19:48;;;;;;;7.57;3.15;;;3.90;98.20;;;;;;5879178;24;20058;-86
2022/03/12 03:23:13;;;;;;;6.82;3.25;;;4.80;98.80;;;;;;5916437;24;20019;-86
2022/03/12 03:25:53;;;;;;;6.57;3.53;;;4.50;98.80;;;;;;5937803;23;20024;-86
2022/03/12 03:28:31;;;;;;;7.88;3.78;;;4.30;98.70;;;;;;5981042;23;20167;-86
2022/03/12 03:31:29;;;;;;;7.03;2.80;;;4.50;98.60;;;;;;6007758;23;20024;-85
2022/03/12 03:34:20;;;;;;;;;;;;;;;;;;;;;
2022/03/12 03:40:34;;;;;;;;;;;4.50;98.80;;;;;;5952262;24;20029;-86
2022/03/12 03:43:56;;;;;;;6.25;3.50;;;4.40;99.00;;;;;;5952145;23;19925;-85
2022/03/12 03:46:59;;;;;;;8.82;3.65;;;4.30;99.00;;;;;;5951725;24;20028;-85
2022/03/12 03:49:40;;;;;;;6.38;3.03;;;4.30;98.80;;;;;;5972340;24;20028;-85
2022/03/12 03:52:31;;;;;;;5.53;3.13;;;4.30;99.10;;;;;;5935679;23;20077;-86
2022/03/12 03:55:06;;;;;;;7.45;3.58;;;4.20;99.30;;;;;;6007373;23;20471;-84
2022/03/12 03:58:21;;;;;;;5.32;2.80;;;4.10;99.30;;;;;;5983997;23;20024;-86
2022/03/12 04:19:05;;;;;;;5.53;3.00;;;3.60;99.20;;;;;;5430459;22;18615910;-85
2022/03/12 04:21:57;;;;;;;5.88;2.60;;;4.40;99.80;;;;;;6195061;23;20110;-85
2022/03/12 04:28:36;;;;;;;7.15;3.58;;;4.00;99.70;;;;;;6220706;22;20027;-85
2022/03/12 04:31:13;;;;;;;5.63;2.58;;;4.40;99.90;;;;;;6218728;23;20455;-85
2022/03/12 04:33:59;;;;;;;5.63;2.63;;;4.00;99.90;;;;;;6194412;23;20116;-85
2022/03/12 04:37:00;;;;;;;5.95;2.60;;;3.20;99.90;;;;;;6193468;23;20025;-84
2022/03/12 04:43:24;;;;;;;4.82;2.72;;;3.80;99.90;;;;;;6220463;23;20022;-84
2022/03/12 04:45:58;;;;;;;5.68;2.90;;;3.70;99.90;;;;;;6168568;23;20039;-85
2022/03/12 04:49:00;;;;;;;5.38;3.03;;;3.70;99.90;;;;;;6171569;23;20518;-84
2022/03/12 04:51:45;;;;;;;6.53;2.85;;;3.80;99.90;;;;;;6165069;23;20020;-84
2022/03/12 04:55:11;;;;;;;4.85;2.30;;;3.70;99.90;;;;;;6190118;23;20495;-84
2022/03/12 05:00:49;;;;;;;5.10;2.50;;;4.10;99.90;;;;;;6130948;23;20134;-84
2022/03/12 05:03:47;;;;;;;7.03;2.78;;;4.20;99.90;;;;;;6106384;23;20357;-84
2022/03/12 05:14:50;;;;;;;5.28;2.47;;;3.60;99.90;;;;;;6067077;22;20034;-84
2022/03/12 05:22:17;;;;;;;;;;;;;;;;;;;;;
2022/03/12 05:36:10;;;;;;;4.43;2.13;;;3.40;99.90;;;;;;6094940;23;20018;-85
2022/03/12 05:42:27;;;;;;;6.38;2.78;;;3.80;99.90;;;;;;6123884;23;20025;-84
2022/03/12 05:45:13;;;;;;;5.80;3.08;;;3.30;99.90;;;;;;6123733;23;20024;-85
2022/03/12 05:48:38;;;;;;;;;;;;;;;;;;;;;
2022/03/12 05:51:43;;;;;;;5.50;2.22;;;2.60;99.90;;;;;;5978019;23;20063;-85
2022/03/12 05:58:25;;;;;;;;;;;;;;;;;;;;;
2022/03/12 06:01:26;;;;;;;5.47;2.75;;;3.10;99.90;;;;;;6090806;23;20015;-84
2022/03/12 06:31:02;;;;;;;;;;;;;;;;;;;;;
2022/03/12 06:34:15;;;;;;;;;;;;;;;;;;;;;
2022/03/12 06:50:50;;;;;;;;;;;;;;;;;;;;;
2022/03/12 06:58:02;;;;;;;7.80;3.40;;;3.50;99.90;;;;;;6275703;22;20066;-85
2022/03/12 07:01:14;;;;;;;4.53;2.38;;;3.40;99.90;;;;;;6251681;22;20765;-84
2022/03/12 07:04:30;;;;;;;5.55;2.50;;;3.60;99.90;;;;;;6149803;22;20081;-84
2022/03/12 07:07:48;;;;;;;5.63;2.67;;;3.70;99.90;;;;;;6222896;22;20020;-85
2022/03/12 07:10:51;;;;;;;;;;;;;;;;;;;;;
2022/03/12 07:17:06;;;;;;;4.30;2.28;;;4.60;99.90;;;;;;6007805;23;20515;-85
2022/03/12 07:19:38;;;;;;;6.32;2.78;;;4.10;99.90;;;;;;6007305;23;20116;-84
2022/03/12 07:22:13;;;;;;;4.75;2.75;;;4.60;99.90;;;;;;6007205;23;20080;-84
2022/03/12 07:28:22;;;;;;;5.45;2.50;;;3.90;99.90;;;;;;6007810;23;20411;-84
2022/03/12 07:30:48;;;;;;;4.93;2.63;;;4.20;99.90;;;;;;6007504;23;20019;-84
2022/03/12 07:33:20;;;;;;;6.53;2.40;;;4.50;99.90;;;;;;6007592;23;20023;-84
2022/03/12 07:35:58;;;;;;;5.50;2.40;;;4.10;99.90;;;;;;6007472;23;20475;-85
2022/03/12 07:38:26;;;;;;;4.53;2.00;;;4.40;99.90;;;;;;6007613;23;20026;-84
2022/03/12 07:40:52;;;;;;;4.97;2.40;;;4.90;99.90;;;;;;5984171;23;20028;-84
2022/03/12 07:43:21;;;;;;;4.32;2.40;;;4.40;99.90;;;;;;6006122;23;20058;-85
2022/03/12 07:46:51;;;;;;;4.90;2.00;;;5.60;99.90;;;;;;5984439;23;20427;-85
2022/03/12 07:49:54;;;;;;;3.80;1.85;;;4.40;99.90;;;;;;5956141;23;20040;-86
2022/03/12 07:52:40;;;;;;;5.57;2.38;;;4.50;99.90;;;;;;6022299;23;20021;-84
2022/03/12 07:55:16;;;;;;;3.95;2.10;;;4.70;99.90;;;;;;6187403;23;20023;-83
2022/03/12 07:57:48;;;;;;;4.93;2.40;;;5.30;99.90;;;;;;6188108;23;20024;-83
2022/03/12 08:00:16;;;;;;;5.55;2.72;;;5.60;99.90;;;;;;6188097;23;20095;-83
2022/03/12 08:02:43;;;;;;;4.82;2.22;;;4.90;99.90;;;;;;6214640;23;20017;-83
2022/03/12 08:05:10;;;;;;;5.20;3.25;;;5.50;99.90;;;;;;6215232;23;20378;-83
2022/03/12 08:07:44;;;;;;;7.20;3.55;;;5.20;99.90;;;;;;6188113;23;20021;-84
2022/03/12 08:10:13;;;;;;;4.90;2.83;;;5.00;99.90;;;;;;6187482;23;20075;-83
2022/03/12 08:12:43;;;;;;;3.53;2.00;;;5.90;99.90;;;;;;6187684;23;20370;-84
2022/03/12 08:15:15;;;;;;;6.97;2.88;;;5.70;99.90;;;;;;6188399;23;20031;-83
2022/03/12 08:17:44;;;;;;;5.53;2.75;;;5.80;99.90;;;;;;6188319;23;20020;-84
2022/03/12 08:20:10;;;;;;;5.22;2.70;;;5.90;99.90;;;;;;6214603;23;20021;-84
2022/03/12 08:22:43;;;;;;;5.05;2.97;;;6.00;99.40;;;;;;6188332;23;20403;-83
2022/03/12 08:25:13;;;;;;;6.03;3.20;;;6.60;99.20;;;;;;6188189;23;20020;-85
2022/03/12 08:28:08;;;;;;;6.75;3.35;;;6.70;99.30;;;;;;6164158;23;20321;-86
2022/03/12 08:30:37;;;;;;;6.10;3.38;;;7.50;99.20;;;;;;6235280;22;20456;-83
2022/03/12 08:33:12;;;;;;;5.38;3.33;;;6.50;99.40;;;;;;6275556;22;20043;-84
2022/03/12 08:35:37;;;;;;;4.73;3.20;;;6.50;99.20;;;;;;6248514;22;20392;-83
2022/03/12 08:38:07;;;;;;;4.53;2.50;;;8.00;99.90;;;;;;6222836;22;20055;-84
2022/03/12 08:40:48;;;;;;;7.47;3.22;;;7.30;99.60;;;;;;6241266;22;20011;-84
2022/03/12 08:43:34;;;;;;;4.78;2.88;;;7.10;99.10;;;;;;6247419;22;20019;-84
2022/03/12 08:46:10;;;;;;;7.53;3.85;;;6.50;98.60;;;;;;6180111;22;20024;-84
2022/03/12 08:48:36;;;;;;;;;;;7.30;98.40;;;;;;6212815;23;20024;-83
2022/03/12 08:51:21;;;;;;;7.97;3.53;;;7.30;98.80;;;;;;6213321;23;19922;-84
2022/03/12 08:54:03;;;;;;;5.65;2.95;;;7.50;98.10;;;;;;6212313;23;20478;-84
2022/03/12 08:57:15;;;;;;;7.00;3.17;;;7.60;98.40;;;;;;6191012;23;20439;-85
2022/03/12 08:59:41;;;;;;;5.10;3.30;;;7.90;98.40;;;;;;6216478;23;20021;-84
2022/03/12 09:02:12;;;;;;;6.30;2.92;;;8.00;97.90;;;;;;6215294;23;20059;-86
2022/03/12 09:04:38;;;;;;;6.43;3.38;;;9.20;98.10;;;;;;6214645;23;20025;-85
2022/03/12 09:14:34;;;;;;;7.00;3.53;;;8.50;97.40;;;;;;6244883;23;20023;-85
2022/03/12 09:20:43;;;;;;;7.97;4.20;;;8.60;96.90;;;;;;6245796;22;20016;-87
2022/03/12 09:37:59;;;;;;;7.57;3.85;;;9.60;96.60;;;;;;6245785;23;20015;-85
2022/03/12 09:55:10;;;;;;;8.30;4.40;;;10.60;96.30;;;;;;6245505;23;20019;-88
2022/03/12 09:58:03;;;;;;;8.77;4.18;;;10.70;96.20;;;;;;6243627;22;20012;-86
2022/03/12 10:00:32;;;;;;;6.38;3.90;;;10.40;96.90;;;;;;6212373;23;20027;-84
2022/03/12 10:02:58;;;;;;;10.35;3.67;;;11.00;96.30;;;;;;6245580;23;20031;-85
2022/03/12 10:12:11;;;;;;;8.45;3.72;;;11.30;96.30;;;;;;6228191;23;20478;-83
2022/03/12 10:14:42;;;;;;;5.90;3.40;;;11.90;96.60;;;;;;6213651;23;20051;-84
2022/03/12 10:17:14;;;;;;;6.75;3.72;;;11.60;96.40;;;;;;6194149;23;20028;-85
2022/03/12 10:19:46;;;;;;;7.18;3.63;;;11.90;96.80;;;;;;6245188;22;20022;-84
2022/03/12 10:22:16;;;;;;;6.90;3.67;;;11.80;96.50;;;;;;6219185;23;20099;-85
2022/03/12 10:24:42;;;;;;;6.88;4.00;;;11.90;97.10;;;;;;6244373;23;20019;-86
2022/03/12 10:27:08;;;;;;;5.95;3.63;;;12.00;98.00;;;;;;6219530;23;20016;-84
2022/03/12 10:29:34;;;;;;;7.95;4.10;;;12.00;97.90;;;;;;6243025;23;20012;-84
2022/03/12 10:32:24;;;;;;;7.13;3.97;;;12.20;98.50;;;;;;6243930;23;20023;-83
2022/03/12 10:34:52;;;;;;;7.13;4.20;;;12.30;98.80;;;;;;6246120;22;20099;-86
2022/03/12 10:37:26;;;;;;;5.43;3.60;;;12.40;99.90;;;;;;6246164;22;20023;-85
2022/03/12 10:40:03;;;;;;;8.02;4.88;;;12.50;98.90;;;;;;6244553;23;20020;-86
2022/03/12 10:42:43;;;;;;;8.55;3.95;;;12.70;99.00;;;;;;6246476;22;20022;-86
2022/03/12 10:45:17;;;;;;;7.93;4.50;;;12.70;99.40;;;;;;6245845;22;20050;-86
2022/03/12 10:47:48;;;;;;;9.75;4.20;;;12.90;99.30;;;;;;6246157;23;20020;-88
2022/03/12 10:50:21;;;;;;;7.00;4.47;;;13.00;99.00;;;;;;6244714;23;20016;-87
2022/03/12 10:52:52;;;;;;;8.23;5.05;;;13.00;99.50;;;;;;6245309;22;20023;-83
2022/03/12 10:55:25;;;;;;;9.95;5.20;;;13.00;99.00;;;;;;6245777;22;20022;-83
2022/03/12 10:58:01;;;;;;;8.10;4.97;;;13.10;99.20;;;;;;6246374;22;20047;-81
2022/03/12 11:00:29;;;;;;;7.07;4.63;;;13.80;99.40;;;;;;6245310;22;20495;-83
2022/03/12 11:03:20;;;;;;;9.02;4.82;;;13.20;98.80;;;;;;6245825;22;20020;-84
2022/03/12 11:05:47;;;;;;;7.75;4.47;;;13.20;99.30;;;;;;6246063;22;20316;-80
2022/03/12 11:08:24;;;;;;;9.20;4.85;;;13.10;99.70;;;;;;6245651;22;20074;-79
2022/03/12 11:10:51;;;;;;;9.20;5.30;;;13.20;99.80;;;;;;6243840;23;20039;-80
2022/03/12 11:13:51;;;;;;;9.23;5.07;;;13.30;99.50;;;;;;6245289;22;20024;-83
2022/03/12 11:16:35;;;;;;;9.00;4.07;;;13.20;99.90;;;;;;6243920;23;20098;-81
2022/03/12 11:19:12;;;;;;;13.05;5.30;;;13.60;99.80;;;;;;6242883;23;20107;-81
2022/03/12 11:21:51;;;;;;;8.93;5.03;;;13.50;99.60;;;;;;6244009;23;20012;-82
2022/03/12 11:24:25;;;;;;;7.40;4.10;;;13.50;99.90;;;;;;6244578;23;20120;-82
2022/03/12 11:27:07;;;;;;;7.20;4.22;;;13.60;99.90;;;;;;6244319;23;20019;-82
2022/03/12 11:30:10;;;;;;;8.90;4.38;;;13.60;99.90;;;;;;6240486;22;20099;-82
2022/03/12 11:33:06;;;;;;;6.90;3.70;;;13.70;99.90;;;;;;6244218;23;20455;-81
2022/03/12 11:35:43;;;;;;;7.45;4.10;;;13.80;99.90;;;;;;6244178;23;20016;-81
2022/03/12 11:38:19;;;;;;;10.77;4.38;;;14.00;99.90;;;;;;6243712;23;20023;-81
2022/03/12 11:40:46;;;;;;;;;;;14.80;99.90;;;;;;6244506;23;20073;-84
2022/03/12 11:43:24;;;;;;;9.20;4.90;;;14.40;99.90;;;;;;6246173;22;20228;-81
2022/03/12 11:45:53;;;;;;;7.38;4.57;;;14.20;99.90;;;;;;6244557;23;20035;-81
2022/03/12 11:48:22;;;;;;;8.25;4.38;;;14.30;99.90;;;;;;6242716;23;20455;-81
2022/03/12 11:50:48;;;;;;;6.22;3.70;;;14.30;99.90;;;;;;6218380;23;20055;-82
2022/03/12 11:53:18;;;;;;;8.32;4.40;;;14.40;99.90;;;;;;6243953;23;20023;-84
2022/03/12 11:55:50;;;;;;;7.00;4.00;;;14.50;99.90;;;;;;6218029;23;20023;-81
2022/03/12 11:58:17;;;;;;;7.70;4.50;;;14.60;99.90;;;;;;6244023;23;20016;-81
2022/03/12 12:01:01;;;;;;;6.95;3.88;;;14.90;99.90;;;;;;6243677;23;20107;-83
2022/03/12 12:03:27;;;;;;;8.80;4.72;;;14.90;99.90;;;;;;6215117;23;20528;-82
2022/03/12 12:05:56;;;;;;;7.90;3.85;;;15.00;99.90;;;;;;6244864;22;20020;-82
2022/03/12 12:08:22;;;;;;;6.22;4.00;;;15.00;99.90;;;;;;6243460;23;20027;-83
2022/03/12 12:10:49;;;;;;;7.30;4.45;;;15.00;99.90;;;;;;6243337;23;20016;-82
2022/03/12 12:13:17;;;;;;;5.97;3.55;;;15.00;99.90;;;;;;6243293;23;20222;-83
2022/03/12 12:15:44;;;;;;;6.40;3.50;;;15.00;99.90;;;;;;6243792;23;20356;-81
2022/03/12 12:18:13;;;;;;;5.78;3.50;;;15.00;99.90;;;;;;6244779;22;20046;-82
2022/03/12 12:20:42;;;;;;;5.38;3.10;;;14.70;99.90;;;;;;6245044;22;20443;-83
2022/03/12 12:23:16;;;;;;;6.57;3.40;;;15.20;99.90;;;;;;6244790;22;20020;-83
2022/03/12 12:25:42;;;;;;;7.65;3.75;;;15.30;99.90;;;;;;6243488;23;20055;-82
2022/03/12 12:28:19;;;;;;;6.10;3.90;;;15.70;99.90;;;;;;6245307;22;20334;-82
2022/03/12 12:30:47;;;;;;;5.60;3.63;;;15.70;99.90;;;;;;6220121;23;20071;-81
2022/03/12 12:33:24;;;;;;;7.28;3.80;;;15.70;99.90;;;;;;6246369;22;20016;-83
2022/03/12 12:36:08;;;;;;;5.57;3.38;;;15.80;99.90;;;;;;6247411;22;20020;-83
2022/03/12 12:42:11;;;;;;;4.55;2.90;;;15.80;99.90;;;;;;6246555;23;20078;-81
2022/03/12 12:44:44;;;;;;;5.05;2.85;;;15.90;99.90;;;;;;6220413;23;20024;-82
2022/03/12 12:47:18;;;;;;;4.93;2.80;;;15.90;99.80;;;;;;6244915;23;20111;-82
2022/03/12 12:49:57;;;;;;;5.03;2.80;;;15.90;99.90;;;;;;6246053;23;20059;-82
2022/03/12 12:52:40;;;;;;;5.75;2.42;;;15.90;99.90;;;;;;6245670;22;20020;-81
2022/03/12 12:55:06;;;;;;;4.63;2.40;;;15.80;98.90;;;;;;6245267;23;20408;-82
2022/03/12 12:57:48;;;;;;;4.68;2.10;;;15.90;99.40;;;;;;6244832;23;20458;-81
2022/03/12 13:00:19;;;;;;;3.70;1.88;;;16.00;99.20;;;;;;6247367;22;20016;-82
2022/03/12 13:02:46;;;;;;;7.25;2.60;;;16.10;99.10;;;;;;6245378;23;20016;-82
2022/03/12 13:05:15;;;;;;;6.15;2.83;;;16.10;98.50;;;;;;6247292;22;20023;-82
2022/03/12 13:08:00;;;;;;;6.95;2.80;;;16.00;99.00;;;;;;6244866;23;20351;-81
2022/03/12 13:10:27;;;;;;;5.80;3.13;;;15.90;99.30;;;;;;6247066;22;20020;-82
2022/03/12 13:13:16;;;;;;;4.72;2.97;;;15.90;99.90;;;;;;6245099;23;20082;-82
2022/03/12 13:15:51;;;;;;;7.13;2.88;;;15.90;99.50;;;;;;6245747;23;20378;-82
2022/03/12 13:18:17;;;;;;;4.18;2.35;;;15.90;99.60;;;;;;6245600;23;20016;-83
2022/03/12 13:20:50;;;;;;;3.55;1.75;;;15.80;99.80;;;;;;6245166;23;20067;-82
2022/03/12 13:23:29;;;;;;;7.40;2.08;;;15.80;99.90;;;;;;6245238;23;20051;-83
2022/03/12 13:25:57;;;;;;;5.07;2.08;;;15.80;99.60;;;;;;6220369;23;20431;-82
2022/03/12 13:28:44;;;;;;;3.65;2.38;;;15.90;99.70;;;;;;6219789;23;20024;-82
2022/03/12 13:31:31;;;;;;;5.65;2.45;;;16.00;99.30;;;;;;6246589;22;20020;-83
2022/03/12 13:34:03;;;;;;;7.90;3.00;;;16.20;99.90;;;;;;6245412;23;20020;-83
2022/03/12 13:36:39;;;;;;;5.70;2.55;;;16.40;99.90;;;;;;6245741;23;20147;-83
2022/03/12 13:39:10;;;;;;;5.47;2.85;;;16.50;98.90;;;;;;6245009;23;20053;-82
2022/03/12 13:41:37;;;;;;;3.78;2.40;;;16.40;98.60;;;;;;6244496;23;20070;-82
2022/03/12 13:44:06;;;;;;;6.13;2.83;;;16.40;98.30;;;;;;6245060;23;20454;-82
2022/03/12 13:46:35;;;;;;;4.75;2.67;;;16.50;98.80;;;;;;6245297;23;20012;-82
2022/03/12 13:49:09;;;;;;;4.57;2.33;;;16.50;98.60;;;;;;6245027;23;20067;-82
2022/03/12 13:51:39;;;;;;;6.13;2.83;;;16.50;99.00;;;;;;6219657;23;20012;-82
2022/03/12 13:54:10;;;;;;;5.03;3.13;;;16.70;98.30;;;;;;6246745;22;20065;-82
2022/03/12 13:56:39;;;;;;;5.35;2.45;;;16.50;98.40;;;;;;6245232;23;20016;-82
2022/03/12 13:59:08;;;;;;;4.45;2.92;;;16.40;99.50;;;;;;6245047;23;20095;-82
2022/03/12 14:01:39;;;;;;;3.95;2.47;;;16.50;98.50;;;;;;6245389;23;20016;-82
2022/03/12 14:04:17;;;;;;;3.97;2.35;;;16.30;98.20;;;;;;6246693;22;20019;-82
2022/03/12 14:06:44;;;;;;;5.25;2.50;;;16.40;98.10;;;;;;6245082;23;20051;-81
2022/03/12 14:16:59;;;;;;;4.13;2.22;;;16.00;97.50;;;;;;6243856;23;20047;-82
2022/03/12 14:19:25;;;;;;;3.75;1.95;;;15.90;98.70;;;;;;6219635;23;20027;-84
2022/03/12 14:21:56;;;;;;;4.10;2.10;;;16.00;98.70;;;;;;6144207;23;20019;-84
2022/03/12 14:24:30;;;;;;;3.97;2.50;;;15.80;99.00;;;;;;6220010;23;20032;-82
2022/03/12 14:27:11;;;;;;;3.97;2.53;;;15.80;99.90;;;;;;6194337;23;20012;-83
2022/03/12 14:29:39;;;;;;;5.25;2.35;;;15.90;99.90;;;;;;6218288;23;20020;-84
2022/03/12 14:32:18;;;;;;;4.53;2.50;;;16.30;99.90;;;;;;6217157;23;20462;-84
2022/03/12 14:34:48;;;;;;;4.32;2.60;;;15.80;98.50;;;;;;6218729;23;20016;-85
2022/03/12 14:37:19;;;;;;;4.95;2.60;;;15.70;98.40;;;;;;6246088;23;20059;-84
2022/03/12 14:39:47;;;;;;;4.63;2.70;;;15.60;97.90;;;;;;6219023;23;20028;-84
2022/03/12 14:42:13;;;;;;;5.50;2.78;;;15.50;98.70;;;;;;6219054;23;20019;-85
2022/03/12 14:44:41;;;;;;;4.53;2.00;;;15.40;98.10;;;;;;6218965;23;20016;-84
2022/03/12 14:47:09;;;;;;;3.92;2.45;;;15.20;98.80;;;;;;6218723;23;20020;-83
2022/03/12 14:49:49;;;;;;;3.95;2.15;;;15.20;99.10;;;;;;6244675;23;20020;-84
2022/03/12 14:52:27;;;;;;;6.20;2.22;;;15.10;99.60;;;;;;6243900;23;20016;-83
2022/03/12 14:54:55;;;;;;;;;;;15.10;99.90;;;;;;6244516;23;20027;-83
2022/03/12 14:57:30;;;;;;;3.63;2.40;;;15.00;99.70;;;;;;6246164;22;19916;-84
2022/03/12 14:59:58;;;;;;;4.40;1.80;;;15.00;99.70;;;;;;6244965;23;20339;-83
2022/03/12 15:02:40;;;;;;;3.83;2.10;;;14.90;99.90;;;;;;6244283;23;20016;-84
2022/03/12 15:05:26;;;;;;;3.80;1.95;;;14.90;99.90;;;;;;6244868;23;20020;-85
2022/03/12 15:08:00;;;;;;;;;;;14.90;99.90;;;;;;6243909;23;20328;-86
2022/03/12 15:10:31;;;;;;;3.67;1.85;;;14.70;99.90;;;;;;6245051;22;19922;-84
2022/03/12 15:13:15;;;;;;;3.88;1.52;;;14.80;99.90;;;;;;6245588;22;20042;-85
2022/03/12 15:15:42;;;;;;;4.00;1.67;;;14.70;99.90;;;;;;6243604;23;20020;-86
2022/03/12 15:18:20;;;;;;;3.67;2.10;;;14.70;99.90;;;;;;6243480;23;20016;-85
2022/03/12 15:20:52;;;;;;;4.28;1.67;;;14.70;99.90;;;;;;6218243;22;20020;-84
2022/03/12 15:23:24;;;;;;;6.32;2.00;;;14.60;99.90;;;;;;6218166;23;20099;-84
2022/03/12 15:25:58;;;;;;;4.15;2.22;;;14.60;99.90;;;;;;6243793;23;20346;-84
2022/03/12 15:28:29;;;;;;;3.55;1.80;;;14.50;99.90;;;;;;6243732;23;20450;-85
2022/03/12 15:31:02;;;;;;;5.82;2.05;;;14.30;99.90;;;;;;6244046;23;20043;-84
2022/03/12 15:33:40;;;;;;;4.60;2.08;;;14.40;99.90;;;;;;6244438;23;20327;-85
2022/03/12 15:36:22;;;;;;;4.57;2.08;;;14.40;99.90;;;;;;6243506;23;20031;-85
2022/03/12 15:38:56;;;;;;;4.05;2.08;;;14.70;99.90;;;;;;6240266;23;20058;-85
2022/03/12 15:41:26;;;;;;;4.47;2.17;;;14.30;99.90;;;;;;6244623;22;20015;-83
2022/03/12 15:43:54;;;;;;;6.13;2.30;;;14.20;99.90;;;;;;6245659;22;20020;-84
2022/03/12 15:46:28;;;;;;;2.97;1.67;;;14.70;99.90;;;;;;6243717;23;20024;-86
2022/03/12 15:49:01;;;;;;;3.67;2.58;;;14.10;99.90;;;;;;6215936;23;20073;-84
2022/03/12 15:51:32;;;;;;;4.20;2.00;;;14.20;99.90;;;;;;6218101;23;20562;-83
2022/03/12 16:26:39;;;;;;;4.78;1.70;;;13.70;99.90;;;;;;6157846;23;20056;-86
2022/03/12 16:29:10;;;;;;;3.33;1.55;;;14.30;99.90;;;;;;6184461;23;20096;-83
2022/03/12 16:31:47;;;;;;;3.75;1.83;;;13.80;99.90;;;;;;6157692;23;20463;-87
2022/03/12 16:34:25;;;;;;;3.10;1.45;;;13.60;99.90;;;;;;6182699;23;20380;-86
2022/03/12 16:36:51;;;;;;;3.50;1.42;;;13.50;99.90;;;;;;6184839;23;20066;-83
2022/03/12 16:39:17;;;;;;;2.65;1.45;;;13.50;99.90;;;;;;6184326;23;20087;-83
2022/03/12 16:41:54;;;;;;;2.22;1.38;;;13.40;99.90;;;;;;6183387;23;20041;-84
2022/03/12 16:44:22;;;;;;;3.10;2.00;;;13.30;99.90;;;;;;6184268;23;20030;-82
2022/03/12 16:46:51;;;;;;;3.55;1.80;;;13.30;99.90;;;;;;6158047;23;20020;-85
2022/03/12 16:49:19;;;;;;;3.75;1.80;;;13.20;99.90;;;;;;6183975;23;20440;-84
2022/03/12 16:51:45;;;;;;;3.97;1.67;;;13.10;99.90;;;;;;6184726;23;20017;-83
2022/03/12 16:54:11;;;;;;;3.25;1.63;;;13.30;99.90;;;;;;6158388;23;20392;-83
2022/03/12 16:56:37;;;;;;;4.95;1.60;;;12.90;99.90;;;;;;6158041;23;20341;-84
2022/03/12 16:59:07;;;;;;;4.57;1.95;;;12.90;99.90;;;;;;6184612;23;20021;-83
2022/03/12 17:01:36;;;;;;;2.88;1.90;;;12.80;99.90;;;;;;6157808;23;20071;-85
2022/03/12 17:04:02;;;;;;;5.22;2.33;;;12.70;99.90;;;;;;6183510;23;20023;-86
2022/03/12 17:06:28;;;;;;;4.00;2.00;;;12.60;99.90;;;;;;6184491;23;20049;-85
2022/03/12 17:08:54;;;;;;;5.65;2.22;;;12.50;99.90;;;;;;6184859;23;20083;-84
2022/03/12 17:11:22;;;;;;;4.25;2.10;;;12.40;99.90;;;;;;6183667;23;20460;-83
2022/03/12 17:13:49;;;;;;;5.20;2.38;;;12.30;99.90;;;;;;6157621;23;20036;-85
2022/03/12 17:16:16;;;;;;;3.40;2.28;;;12.70;99.90;;;;;;6160067;23;20029;-85
2022/03/12 17:18:44;;;;;;;3.78;1.90;;;12.10;99.90;;;;;;6159175;23;20122;-84
2022/03/12 17:21:11;;;;;;;3.60;1.95;;;12.60;99.90;;;;;;6186042;23;20344;-84
2022/03/12 17:23:38;;;;;;;4.10;1.70;;;12.20;99.90;;;;;;6158946;23;20047;-82
2022/03/12 17:26:13;;;;;;;4.68;1.92;;;11.90;99.90;;;;;;6158994;23;20024;-84
2022/03/12 17:28:41;;;;;;;5.68;2.60;;;11.80;99.90;;;;;;6159351;23;20451;-85
2022/03/12 17:34:35;;;;;;;4.05;1.98;;;11.60;99.90;;;;;;6123492;23;20030;-87
2022/03/12 17:37:02;;;;;;;3.45;1.92;;;11.50;99.90;;;;;;6099801;23;20025;-85
2022/03/12 17:39:28;;;;;;;4.22;2.10;;;11.40;99.90;;;;;;6099737;23;20488;-85
2022/03/12 17:41:54;;;;;;;5.32;2.85;;;11.30;99.90;;;;;;6099602;23;20081;-88
2022/03/12 17:44:21;;;;;;;5.57;2.15;;;11.20;99.90;;;;;;6124187;23;20022;-85
2022/03/12 17:46:49;;;;;;;4.60;1.83;;;11.20;99.90;;;;;;6123605;23;20574;-88
2022/03/12 17:49:15;;;;;;;5.05;2.20;;;11.00;99.90;;;;;;6099548;23;20385;-88
2022/03/12 17:51:45;;;;;;;4.75;2.25;;;10.90;99.90;;;;;;6099733;23;20049;-87
2022/03/12 17:54:14;;;;;;;3.40;1.70;;;10.80;99.90;;;;;;6099271;23;20081;-87
2022/03/12 17:56:42;;;;;;;6.55;2.35;;;11.30;99.90;;;;;;6099086;23;20018;-87
2022/03/12 17:59:09;;;;;;;5.45;2.47;;;10.60;99.90;;;;;;6099449;23;20100;-86
2022/03/12 18:01:35;;;;;;;4.65;2.72;;;10.50;99.90;;;;;;6099214;23;20018;-86
2022/03/12 18:04:19;;;;;;;6.97;2.83;;;10.40;99.90;;;;;;6123721;23;20076;-87
2022/03/12 18:06:55;;;;;;;8.40;2.78;;;10.50;99.90;;;;;;6098434;23;20014;-87
2022/03/12 18:16:44;;;;;;;7.72;3.67;;;10.00;99.90;;;;;;6122922;23;20089;-89
2022/03/12 18:19:23;;;;;;;6.93;4.00;;;9.90;99.90;;;;;;6123829;23;20141;-84
2022/03/12 18:21:54;;;;;;;6.30;3.72;;;9.80;99.90;;;;;;6075936;23;20049;-87
2022/03/12 18:24:21;;;;;;;7.22;3.88;;;9.80;99.90;;;;;;6098215;23;20033;-88
2022/03/12 18:26:47;;;;;;;7.00;3.95;;;9.80;99.90;;;;;;6138516;22;20018;-87
2022/03/12 18:29:13;;;;;;;8.50;4.60;;;10.30;99.90;;;;;;6249195;22;20094;-88
2022/03/12 18:31:41;;;;;;;9.57;5.28;;;9.60;99.90;;;;;;6224415;22;20462;-87
2022/03/12 18:34:07;;;;;;;6.18;3.78;;;9.90;99.90;;;;;;6276639;22;20065;-86
2022/03/12 18:36:32;;;;;;;6.95;4.10;;;9.50;99.90;;;;;;6248886;22;20047;-88
2022/03/12 18:39:10;;;;;;;8.35;4.68;;;9.40;99.90;;;;;;6249553;22;20014;-86
2022/03/12 18:41:41;;;;;;;8.38;4.90;;;9.30;99.90;;;;;;6223271;22;20019;-87
2022/03/12 18:44:11;;;;;;;10.18;5.13;;;9.30;99.90;;;;;;6248842;22;20450;-87
2022/03/12 18:46:38;;;;;;;7.75;5.32;;;9.20;99.90;;;;;;6248898;22;20030;-86
2022/03/12 18:49:08;;;;;;;7.95;4.95;;;9.10;99.90;;;;;;6248741;22;20024;-87
2022/03/12 18:51:37;;;;;;;8.02;4.72;;;9.10;99.90;;;;;;6249066;22;20020;-85
2022/03/12 18:54:07;;;;;;;9.55;5.60;;;9.00;99.90;;;;;;6275609;22;20024;-84
2022/03/12 18:56:34;;;;;;;9.05;5.65;;;8.70;99.90;;;;;;6248533;22;20027;-86
2022/03/12 18:59:01;;;;;;;8.80;5.28;;;8.80;99.90;;;;;;6248954;22;20011;-85
2022/03/12 19:01:27;;;;;;;9.43;4.95;;;8.80;99.90;;;;;;6249410;22;20018;-87
2022/03/12 19:03:53;;;;;;;9.65;5.43;;;8.40;99.90;;;;;;6276039;22;20047;-86
2022/03/12 19:06:19;;;;;;;9.25;4.80;;;8.70;99.90;;;;;;6249372;22;20024;-88
2022/03/12 19:08:45;;;;;;;9.52;5.18;;;8.60;99.90;;;;;;6248254;22;20030;-86
2022/03/12 19:11:38;;;;;;;6.70;4.60;;;8.50;99.90;;;;;;6223729;22;20020;-86